createdAt,value
2023-05-07T00:00:02.415Z,96882.16
2023-05-07T00:01:04.388Z,96884.19
2023-05-07T00:02:06.253Z,96892.06
2023-05-07T00:03:08.430Z,96888.44
2023-05-07T00:04:10.858Z,96895.03
2023-05-07T00:05:13.775Z,96890.16
2023-05-07T00:06:16.211Z,96882.09
2023-05-07T00:07:18.073Z,96882.88
2023-05-07T00:08:20.632Z,96886.75
2023-05-07T00:09:22.691Z,96887.53
2023-05-07T00:10:24.600Z,96887.97
2023-05-07T00:11:27.167Z,96887.47
2023-05-07T00:12:29.005Z,96892.50
2023-05-07T00:13:36.711Z,96892.06
2023-05-07T00:14:38.616Z,96889.81
2023-05-07T00:15:40.555Z,96897.44
2023-05-07T00:16:42.613Z,96894.63
2023-05-07T00:17:44.517Z,96894.25
2023-05-07T00:18:46.521Z,96892.41
2023-05-07T00:19:49.108Z,96890.59
2023-05-07T00:20:51.446Z,96892.78
2023-05-07T00:21:55.213Z,96889.13
2023-05-07T00:22:57.061Z,96884.72
2023-05-07T00:23:58.964Z,96891.53
2023-05-07T00:25:01.596Z,96888.69
2023-05-07T00:26:04.041Z,96891.31
2023-05-07T00:27:06.680Z,96891.91
2023-05-07T00:28:08.565Z,96893.72
2023-05-07T00:29:10.408Z,96893.72
2023-05-07T00:30:13.085Z,96895.78
2023-05-07T00:31:15.017Z,96900.66
2023-05-07T00:32:17.072Z,96898.03
2023-05-07T00:33:18.945Z,96893.56
2023-05-07T00:34:20.868Z,96892.31
2023-05-07T00:35:22.716Z,96899.19
2023-05-07T00:36:24.568Z,96892.13
2023-05-07T00:37:26.504Z,96897.16
2023-05-07T00:38:28.341Z,96890.75
2023-05-07T00:39:30.188Z,96885.94
2023-05-07T00:40:32.103Z,96895.84
2023-05-07T00:41:33.951Z,96898.47
2023-05-07T00:42:35.893Z,96895.50
2023-05-07T00:43:37.775Z,96892.06
2023-05-07T00:44:39.633Z,96894.47
2023-05-07T00:45:41.486Z,96889.59
2023-05-07T00:46:43.409Z,96892.78
2023-05-07T00:47:45.419Z,96885.72
2023-05-07T00:48:47.416Z,96888.13
2023-05-07T00:49:49.313Z,96893.94
2023-05-07T00:50:51.210Z,96893.94
2023-05-07T00:51:53.109Z,96890.06
2023-05-07T00:52:55.162Z,96891.69
2023-05-07T00:53:57.051Z,96892.25
2023-05-07T00:54:58.926Z,96891.44
2023-05-07T00:56:02.190Z,96892.03
2023-05-07T00:57:05.257Z,96891.22
2023-05-07T00:58:07.696Z,96884.16
2023-05-07T00:59:09.782Z,96886.56
2023-05-07T01:00:13.200Z,96897.84
2023-05-07T01:01:17.909Z,96899.25
2023-05-07T01:02:19.907Z,96897.63
2023-05-07T01:03:22.398Z,96901.03
2023-05-07T01:04:24.802Z,96889.97
2023-05-07T01:05:28.875Z,96896.84
2023-05-07T01:06:33.252Z,96893.84
2023-05-07T01:07:36.150Z,96900.34
2023-05-07T01:08:38.082Z,96898.16
2023-05-07T01:09:40.061Z,96890.97
2023-05-07T01:10:44.274Z,96889.13
2023-05-07T01:11:46.294Z,96889.13
2023-05-07T01:12:49.514Z,96895.19
2023-05-07T01:13:52.061Z,96894.16
2023-05-07T01:14:54.330Z,96889.13
2023-05-07T01:15:56.164Z,96889.13
2023-05-07T01:16:58.163Z,96889.38
2023-05-07T01:18:00.184Z,96885.59
2023-05-07T01:19:02.448Z,96879.78
2023-05-07T01:20:06.457Z,96885.44
2023-05-07T01:21:10.268Z,96888.00
2023-05-07T01:22:13.201Z,96882.63
2023-05-07T01:23:15.459Z,96884.22
2023-05-07T01:24:18.011Z,96889.44
2023-05-07T01:25:19.936Z,96887.88
2023-05-07T01:26:21.849Z,96889.44
2023-05-07T01:27:23.702Z,96886.84
2023-05-07T01:28:25.550Z,96886.22
2023-05-07T01:29:27.615Z,96882.63
2023-05-07T01:30:29.953Z,96889.44
2023-05-07T01:31:31.921Z,96885.81
2023-05-07T01:32:37.229Z,96884.56
2023-05-07T01:33:39.795Z,96881.16
2023-05-07T01:34:41.926Z,96889.03
2023-05-07T01:35:46.828Z,96887.41
2023-05-07T01:36:50.286Z,96883.19
2023-05-07T01:37:52.546Z,96890.47
2023-05-07T01:38:54.613Z,96890.28
2023-05-07T01:39:56.869Z,96891.09
2023-05-07T01:40:59.131Z,96885.50
2023-05-07T01:42:01.253Z,96883.47
2023-05-07T01:43:03.714Z,96887.25
2023-05-07T01:44:07.026Z,96885.81
2023-05-07T01:45:09.243Z,96889.59
2023-05-07T01:46:12.141Z,96889.38
2023-05-07T01:47:15.008Z,96892.22
2023-05-07T01:48:16.904Z,96888.19
2023-05-07T01:49:18.805Z,96884.38
2023-05-07T01:50:20.806Z,96886.03
2023-05-07T01:51:23.596Z,96889.03
2023-05-07T01:52:26.364Z,96883.78
2023-05-07T01:53:29.688Z,96883.78
2023-05-07T01:54:32.103Z,96891.84
2023-05-07T01:55:34.021Z,96893.44
2023-05-07T01:56:36.475Z,96890.03
2023-05-07T01:57:38.304Z,96891.66
2023-05-07T01:58:40.212Z,96893.69
2023-05-07T01:59:42.005Z,96886.84
2023-05-07T02:00:43.893Z,96889.44
2023-05-07T02:01:45.822Z,96894.28
2023-05-07T02:02:47.827Z,96888.91
2023-05-07T02:03:49.809Z,96891.16
2023-05-07T02:04:51.762Z,96889.22
2023-05-07T02:05:54.108Z,96889.22
2023-05-07T02:06:57.018Z,96886.16
2023-05-07T02:07:58.866Z,96884.69
2023-05-07T02:09:00.649Z,96887.88
2023-05-07T02:10:02.643Z,96883.47
2023-05-07T02:11:05.030Z,96881.44
2023-05-07T02:12:06.853Z,96883.03
2023-05-07T02:13:08.816Z,96883.41
2023-05-07T02:14:10.666Z,96886.84
2023-05-07T02:15:12.626Z,96888.84
2023-05-07T02:16:15.851Z,96887.25
2023-05-07T02:17:17.789Z,96884.63
2023-05-07T02:18:19.652Z,96881.78
2023-05-07T02:19:22.429Z,96885.81
2023-05-07T02:20:24.239Z,96883.78
2023-05-07T02:21:27.303Z,96888.19
2023-05-07T02:22:30.266Z,96889.03
2023-05-07T02:23:32.184Z,96888.44
2023-05-07T02:24:33.977Z,96891.66
2023-05-07T02:25:35.887Z,96892.66
2023-05-07T02:26:37.815Z,96882.38
2023-05-07T02:27:39.705Z,96890.47
2023-05-07T02:28:41.540Z,96887.88
2023-05-07T02:29:43.371Z,96890.09
2023-05-07T02:30:45.299Z,96888.72
2023-05-07T02:31:47.254Z,96883.47
2023-05-07T02:32:49.211Z,96886.88
2023-05-07T02:33:51.093Z,96879.41
2023-05-07T02:34:53.529Z,96883.03
2023-05-07T02:35:55.402Z,96880.03
2023-05-07T02:36:57.376Z,96879.81
2023-05-07T02:37:59.219Z,96884.63
2023-05-07T02:39:01.481Z,96878.19
2023-05-07T02:40:04.879Z,96878.75
2023-05-07T02:41:06.783Z,96879.34
2023-05-07T02:42:08.679Z,96876.72
2023-05-07T02:43:10.508Z,96878.53
2023-05-07T02:44:12.410Z,96881.38
2023-05-07T02:45:14.275Z,96875.34
2023-05-07T02:46:17.092Z,96875.16
2023-05-07T02:47:18.975Z,96878.34
2023-05-07T02:48:21.060Z,96878.44
2023-05-07T02:49:22.956Z,96877.06
2023-05-07T02:50:24.856Z,96880.69
2023-05-07T02:51:27.438Z,96880.47
2023-05-07T02:52:29.237Z,96885.28
2023-05-07T02:53:31.252Z,96874.56
2023-05-07T02:54:33.193Z,96874.38
2023-05-07T02:55:35.112Z,96875.75
2023-05-07T02:56:37.021Z,96872.13
2023-05-07T02:57:38.924Z,96880.59
2023-05-07T02:58:40.984Z,96869.69
2023-05-07T02:59:43.233Z,96874.16
2023-05-07T03:00:45.130Z,96884.22
2023-05-07T03:01:47.103Z,96878.34
2023-05-07T03:02:49.098Z,96878.19
2023-05-07T03:03:51.140Z,96877.72
2023-05-07T03:04:53.128Z,96877.50
2023-05-07T03:05:55.029Z,96880.13
2023-05-07T03:06:56.889Z,96886.16
2023-05-07T03:07:58.637Z,96884.94
2023-05-07T03:09:00.532Z,96877.66
2023-05-07T03:10:02.464Z,96884.50
2023-05-07T03:11:04.383Z,96884.28
2023-05-07T03:12:06.293Z,96884.06
2023-05-07T03:13:08.215Z,96888.28
2023-05-07T03:14:10.168Z,96886.69
2023-05-07T03:15:13.947Z,96884.50
2023-05-07T03:16:15.842Z,96885.75
2023-05-07T03:17:17.736Z,96882.53
2023-05-07T03:18:19.758Z,96884.22
2023-05-07T03:19:22.006Z,96888.44
2023-05-07T03:20:23.889Z,96882.16
2023-05-07T03:21:27.746Z,96891.41
2023-05-07T03:22:29.610Z,96885.16
2023-05-07T03:23:31.412Z,96889.94
2023-05-07T03:24:33.378Z,96889.81
2023-05-07T03:25:35.233Z,96881.97
2023-05-07T03:26:37.112Z,96890.97
2023-05-07T03:27:39.558Z,96888.16
2023-05-07T03:28:41.412Z,96892.34
2023-05-07T03:29:43.342Z,96896.59
2023-05-07T03:30:45.194Z,96887.91
2023-05-07T03:31:47.114Z,96893.97
2023-05-07T03:32:49.119Z,96895.28
2023-05-07T03:33:57.401Z,96895.13
2023-05-07T03:34:59.298Z,96895.31
2023-05-07T03:36:01.312Z,96892.25
2023-05-07T03:37:03.227Z,96897.91
2023-05-07T03:38:05.119Z,96893.22
2023-05-07T03:39:06.918Z,96896.66
2023-05-07T03:40:09.826Z,96889.25
2023-05-07T03:41:11.953Z,96899.13
2023-05-07T03:42:13.868Z,96897.31
2023-05-07T03:43:15.981Z,96898.69
2023-05-07T03:44:17.824Z,96899.06
2023-05-07T03:45:19.843Z,96900.66
2023-05-07T03:46:21.764Z,96902.72
2023-05-07T03:47:23.662Z,96896.66
2023-05-07T03:48:26.063Z,96904.28
2023-05-07T03:49:27.880Z,96895.63
2023-05-07T03:50:29.765Z,96897.91
2023-05-07T03:51:31.864Z,96901.88
2023-05-07T03:52:33.705Z,96898.25
2023-05-07T03:53:35.599Z,96904.28
2023-05-07T03:54:38.052Z,96906.91
2023-05-07T03:55:40.059Z,96906.72
2023-05-07T03:56:41.931Z,96903.50
2023-05-07T03:57:43.704Z,96912.16
2023-05-07T03:58:45.713Z,96905.53
2023-05-07T03:59:47.577Z,96913.19
2023-05-07T04:00:50.221Z,96907.94
2023-05-07T04:01:52.281Z,96902.47
2023-05-07T04:02:54.245Z,96912.38
2023-05-07T04:03:56.229Z,96901.09
2023-05-07T04:04:58.131Z,96907.94
2023-05-07T04:06:00.037Z,96902.72
2023-05-07T04:07:01.924Z,96906.34
2023-05-07T04:08:03.817Z,96908.97
2023-05-07T04:09:05.744Z,96906.78
2023-05-07T04:10:07.976Z,96910.41
2023-05-07T04:11:10.129Z,96912.81
2023-05-07T04:12:11.964Z,96908.16
2023-05-07T04:13:14.458Z,96909.31
2023-05-07T04:14:16.372Z,96916.41
2023-05-07T04:15:18.250Z,96916.59
2023-05-07T04:16:20.166Z,96917.63
2023-05-07T04:17:22.201Z,96920.81
2023-05-07T04:18:24.053Z,96922.22
2023-05-07T04:19:25.958Z,96920.59
2023-05-07T04:20:27.832Z,96915.94
2023-05-07T04:21:29.851Z,96916.72
2023-05-07T04:22:31.688Z,96922.81
2023-05-07T04:23:33.601Z,96918.34
2023-05-07T04:24:35.657Z,96920.97
2023-05-07T04:25:37.534Z,96921.63
2023-05-07T04:26:39.476Z,96918.78
2023-05-07T04:27:41.352Z,96920.59
2023-05-07T04:28:43.750Z,96919.44
2023-05-07T04:29:48.436Z,96926.31
2023-05-07T04:30:50.300Z,96923.34
2023-05-07T04:31:52.347Z,96920.28
2023-05-07T04:32:54.374Z,96918.84
2023-05-07T04:33:56.559Z,96924.47
2023-05-07T04:34:58.410Z,96920.03
2023-05-07T04:36:04.187Z,96927.66
2023-05-07T04:37:06.072Z,96932.91
2023-05-07T04:38:07.918Z,96926.44
2023-05-07T04:39:10.125Z,96928.03
2023-05-07T04:40:12.323Z,96933.03
2023-05-07T04:41:14.638Z,96927.16
2023-05-07T04:42:17.019Z,96934.00
2023-05-07T04:43:18.859Z,96934.00
2023-05-07T04:44:20.674Z,96933.19
2023-05-07T04:45:22.579Z,96930.78
2023-05-07T04:46:25.742Z,96938.66
2023-05-07T04:47:27.879Z,96935.59
2023-05-07T04:48:30.245Z,96934.56
2023-05-07T04:49:32.139Z,96933.00
2023-05-07T04:50:34.152Z,96938.44
2023-05-07T04:51:36.060Z,96937.66
2023-05-07T04:52:38.046Z,96932.25
2023-05-07T04:53:39.860Z,96944.19
2023-05-07T04:54:41.730Z,96934.88
2023-05-07T04:55:44.186Z,96933.19
2023-05-07T04:56:46.178Z,96936.19
2023-05-07T04:57:48.647Z,96939.19
2023-05-07T04:58:50.516Z,96940.56
2023-05-07T04:59:52.321Z,96935.91
2023-05-07T05:00:54.190Z,96938.63
2023-05-07T05:01:57.198Z,96940.84
2023-05-07T05:02:59.335Z,96933.75
2023-05-07T05:04:01.975Z,96939.00
2023-05-07T05:05:03.846Z,96935.81
2023-05-07T05:06:05.911Z,96929.97
2023-05-07T05:07:07.867Z,96934.66
2023-05-07T05:08:09.959Z,96933.41
2023-05-07T05:09:12.337Z,96935.00
2023-05-07T05:10:14.559Z,96931.59
2023-05-07T05:11:16.420Z,96939.47
2023-05-07T05:12:18.327Z,96940.69
2023-05-07T05:13:20.250Z,96927.81
2023-05-07T05:14:22.308Z,96941.25
2023-05-07T05:15:24.332Z,96942.31
2023-05-07T05:16:26.192Z,96940.47
2023-05-07T05:17:28.122Z,96942.31
2023-05-07T05:18:30.028Z,96941.72
2023-05-07T05:19:31.944Z,96943.75
2023-05-07T05:20:33.778Z,96941.25
2023-05-07T05:21:35.708Z,96945.03
2023-05-07T05:22:37.601Z,96932.97
2023-05-07T05:23:40.247Z,96946.19
2023-05-07T05:24:42.206Z,96938.69
2023-05-07T05:25:44.046Z,96934.56
2023-05-07T05:26:46.022Z,96945.13
2023-05-07T05:27:47.836Z,96943.53
2023-05-07T05:28:49.758Z,96943.19
2023-05-07T05:29:51.624Z,96941.81
2023-05-07T05:30:53.566Z,96944.19
2023-05-07T05:31:55.580Z,96938.31
2023-05-07T05:32:57.642Z,96946.75
2023-05-07T05:33:59.559Z,96943.88
2023-05-07T05:35:01.569Z,96944.25
2023-05-07T05:36:03.459Z,96948.25
2023-05-07T05:37:05.290Z,96939.81
2023-05-07T05:38:07.230Z,96944.13
2023-05-07T05:39:10.203Z,96935.09
2023-05-07T05:40:12.297Z,96938.88
2023-05-07T05:41:14.600Z,96946.00
2023-05-07T05:42:16.441Z,96939.59
2023-05-07T05:43:18.356Z,96945.22
2023-05-07T05:44:20.225Z,96937.72
2023-05-07T05:45:22.076Z,96936.69
2023-05-07T05:46:24.188Z,96938.63
2023-05-07T05:47:26.179Z,96934.22
2023-05-07T05:48:28.112Z,96943.25
2023-05-07T05:49:30.028Z,96939.38
2023-05-07T05:50:31.834Z,96937.91
2023-05-07T05:51:33.668Z,96937.03
2023-05-07T05:52:35.546Z,96937.19
2023-05-07T05:53:37.292Z,96934.66
2023-05-07T05:54:39.278Z,96942.69
2023-05-07T05:55:41.179Z,96935.97
2023-05-07T05:56:43.231Z,96942.69
2023-05-07T05:57:45.064Z,96941.06
2023-05-07T05:58:47.692Z,96938.44
2023-05-07T05:59:49.707Z,96947.56
2023-05-07T06:00:53.857Z,96947.56
2023-05-07T06:01:55.821Z,96946.09
2023-05-07T06:02:57.684Z,96946.69
2023-05-07T06:03:59.492Z,96945.44
2023-05-07T06:05:01.645Z,96948.63
2023-05-07T06:06:03.554Z,96937.34
2023-05-07T06:07:05.444Z,96952.50
2023-05-07T06:08:07.370Z,96948.00
2023-05-07T06:09:09.244Z,96949.84
2023-05-07T06:10:11.538Z,96948.25
2023-05-07T06:11:13.962Z,96944.59
2023-05-07T06:12:15.737Z,96951.00
2023-05-07T06:13:17.728Z,96943.25
2023-05-07T06:14:19.631Z,96954.91
2023-05-07T06:15:22.407Z,96949.53
2023-05-07T06:16:25.714Z,96951.56
2023-05-07T06:17:27.638Z,96954.78
2023-05-07T06:18:29.469Z,96950.31
2023-05-07T06:19:31.386Z,96945.00
2023-05-07T06:20:33.268Z,96948.31
2023-05-07T06:21:35.127Z,96944.69
2023-05-07T06:22:36.954Z,96948.31
2023-05-07T06:23:38.788Z,96949.22
2023-05-07T06:24:40.650Z,96945.75
2023-05-07T06:25:42.562Z,96953.63
2023-05-07T06:26:44.376Z,96946.53
2023-05-07T06:27:46.260Z,96948.72
2023-05-07T06:28:48.186Z,96948.28
2023-05-07T06:29:50.151Z,96951.13
2023-05-07T06:30:52.193Z,96949.66
2023-05-07T06:31:54.334Z,96944.19
2023-05-07T06:32:56.264Z,96954.66
2023-05-07T06:33:58.277Z,96957.28
2023-05-07T06:35:00.119Z,96950.94
2023-05-07T06:36:02.154Z,96952.09
2023-05-07T06:37:04.292Z,96950.03
2023-05-07T06:38:06.407Z,96947.56
2023-05-07T06:39:08.469Z,96949.72
2023-05-07T06:40:10.942Z,96949.88
2023-05-07T06:41:13.108Z,96951.81
2023-05-07T06:42:15.021Z,96948.28
2023-05-07T06:43:16.870Z,96952.88
2023-05-07T06:44:18.782Z,96959.88
2023-05-07T06:45:21.394Z,96957.84
2023-05-07T06:46:23.468Z,96959.56
2023-05-07T06:47:25.376Z,96955.78
2023-05-07T06:48:27.261Z,96959.81
2023-05-07T06:49:29.204Z,96950.09
2023-05-07T06:50:31.128Z,96954.88
2023-05-07T06:51:33.155Z,96958.91
2023-05-07T06:52:34.992Z,96953.75
2023-05-07T06:53:36.866Z,96955.94
2023-05-07T06:54:38.785Z,96953.88
2023-05-07T06:55:40.586Z,96962.31
2023-05-07T06:56:43.195Z,96954.44
2023-05-07T06:57:44.996Z,96954.44
2023-05-07T06:58:46.810Z,96960.06
2023-05-07T06:59:48.801Z,96960.38
2023-05-07T07:00:50.733Z,96956.16
2023-05-07T07:01:52.722Z,96955.38
2023-05-07T07:02:55.203Z,96953.53
2023-05-07T07:03:57.080Z,96954.53
2023-05-07T07:04:58.945Z,96951.47
2023-05-07T07:06:00.941Z,96958.31
2023-05-07T07:07:02.857Z,96960.50
2023-05-07T07:08:04.833Z,96950.34
2023-05-07T07:09:06.736Z,96959.00
2023-05-07T07:10:09.002Z,96959.72
2023-05-07T07:11:11.454Z,96954.19
2023-05-07T07:12:13.366Z,96962.44
2023-05-07T07:13:15.278Z,96946.09
2023-05-07T07:14:17.290Z,96955.59
2023-05-07T07:15:19.223Z,96951.47
2023-05-07T07:16:21.842Z,96941.75
2023-05-07T07:17:23.778Z,96953.06
2023-05-07T07:18:25.853Z,96955.47
2023-05-07T07:19:27.804Z,96952.63
2023-05-07T07:20:29.700Z,96951.69
2023-05-07T07:21:31.967Z,96945.75
2023-05-07T07:22:35.871Z,96946.31
2023-05-07T07:23:37.783Z,96950.31
2023-05-07T07:24:39.576Z,96944.59
2023-05-07T07:25:41.904Z,96954.19
2023-05-07T07:26:44.013Z,96947.22
2023-05-07T07:27:46.064Z,96946.16
2023-05-07T07:28:48.119Z,96949.13
2023-05-07T07:29:50.059Z,96951.88
2023-05-07T07:30:51.887Z,96951.97
2023-05-07T07:31:53.736Z,96942.81
2023-05-07T07:32:57.495Z,96948.19
2023-05-07T07:33:59.386Z,96952.53
2023-05-07T07:35:01.449Z,96949.47
2023-05-07T07:36:03.486Z,96949.78
2023-05-07T07:37:07.400Z,96939.59
2023-05-07T07:38:09.303Z,96951.25
2023-05-07T07:39:11.221Z,96941.06
2023-05-07T07:40:13.527Z,96950.09
2023-05-07T07:41:15.650Z,96948.31
2023-05-07T07:42:17.606Z,96947.97
2023-05-07T07:43:19.502Z,96940.75
2023-05-07T07:44:21.872Z,96940.44
2023-05-07T07:45:23.721Z,96939.06
2023-05-07T07:46:25.648Z,96934.13
2023-05-07T07:47:27.533Z,96939.25
2023-05-07T07:48:29.449Z,96937.56
2023-05-07T07:49:31.406Z,96935.81
2023-05-07T07:50:43.555Z,96938.41
2023-05-07T07:51:47.319Z,96932.94
2023-05-07T07:52:49.885Z,96928.78
2023-05-07T07:53:51.767Z,96930.47
2023-05-07T07:54:53.739Z,96931.03
2023-05-07T07:55:59.407Z,96934.25
2023-05-07T07:57:02.814Z,96926.41
2023-05-07T07:58:04.583Z,96923.66
2023-05-07T07:59:06.478Z,96932.41
2023-05-07T08:00:08.880Z,96933.31
2023-05-07T08:01:11.230Z,96924.94
2023-05-07T08:02:13.119Z,96933.16
2023-05-07T08:03:15.784Z,96928.69
2023-05-07T08:04:17.719Z,96923.75
2023-05-07T08:05:19.688Z,96930.72
2023-05-07T08:06:21.592Z,96926.06
2023-05-07T08:07:24.253Z,96927.19
2023-05-07T08:08:26.102Z,96926.00
2023-05-07T08:09:28.033Z,96928.41
2023-05-07T08:10:29.896Z,96930.22
2023-05-07T08:11:31.847Z,96936.38
2023-05-07T08:12:33.863Z,96920.63
2023-05-07T08:13:35.916Z,96934.19
2023-05-07T08:14:38.347Z,96928.63
2023-05-07T08:15:40.253Z,96927.50
2023-05-07T08:16:42.249Z,96929.13
2023-05-07T08:17:44.524Z,96934.19
2023-05-07T08:18:46.405Z,96923.63
2023-05-07T08:19:48.331Z,96927.84
2023-05-07T08:20:50.243Z,96925.69
2023-05-07T08:21:52.180Z,96929.94
2023-05-07T08:22:54.158Z,96923.47
2023-05-07T08:23:56.062Z,96935.16
2023-05-07T08:24:57.885Z,96932.38
2023-05-07T08:26:00.188Z,96929.88
2023-05-07T08:27:02.101Z,96934.94
2023-05-07T08:28:04.753Z,96925.50
2023-05-07T08:29:06.819Z,96934.00
2023-05-07T08:30:09.148Z,96933.03
2023-05-07T08:31:11.438Z,96934.88
2023-05-07T08:32:13.354Z,96933.34
2023-05-07T08:33:15.230Z,96935.25
2023-05-07T08:34:17.186Z,96929.06
2023-05-07T08:35:19.030Z,96936.75
2023-05-07T08:36:20.948Z,96930.94
2023-05-07T08:37:22.918Z,96924.22
2023-05-07T08:38:24.775Z,96925.63
2023-05-07T08:39:26.561Z,96924.56
2023-05-07T08:40:28.922Z,96924.09
2023-05-07T08:41:30.923Z,96920.63
2023-05-07T08:42:33.560Z,96928.13
2023-05-07T08:43:37.858Z,96927.97
2023-05-07T08:44:41.175Z,96924.56
2023-05-07T08:45:43.113Z,96925.72
2023-05-07T08:46:48.480Z,96921.00
2023-05-07T08:47:56.022Z,96926.56
2023-05-07T08:48:57.893Z,96924.72
2023-05-07T08:49:59.805Z,96918.94
2023-05-07T08:51:02.145Z,96920.28
2023-05-07T08:52:04.117Z,96915.28
2023-05-07T08:53:06.677Z,96917.44
2023-05-07T08:54:08.820Z,96925.16
2023-05-07T08:55:11.448Z,96916.78
2023-05-07T08:56:13.487Z,96918.66
2023-05-07T08:57:15.345Z,96912.13
2023-05-07T08:58:17.253Z,96915.91
2023-05-07T08:59:19.030Z,96910.09
2023-05-07T09:00:21.115Z,96909.59
2023-05-07T09:01:23.268Z,96912.78
2023-05-07T09:02:25.217Z,96911.72
2023-05-07T09:03:27.280Z,96906.44
2023-05-07T09:04:29.278Z,96910.69
2023-05-07T09:05:31.268Z,96912.81
2023-05-07T09:06:33.079Z,96909.44
2023-05-07T09:07:35.175Z,96904.94
2023-05-07T09:08:37.307Z,96904.97
2023-05-07T09:09:39.137Z,96902.66
2023-05-07T09:10:41.064Z,96901.88
2023-05-07T09:11:42.929Z,96901.16
2023-05-07T09:12:44.852Z,96902.25
2023-05-07T09:13:46.900Z,96900.47
2023-05-07T09:14:48.778Z,96897.84
2023-05-07T09:15:50.695Z,96892.84
2023-05-07T09:16:55.417Z,96896.84
2023-05-07T09:18:02.219Z,96893.16
2023-05-07T09:19:04.441Z,96895.56
2023-05-07T09:20:09.286Z,96896.41
2023-05-07T09:21:12.738Z,96884.78
2023-05-07T09:22:14.683Z,96884.25
2023-05-07T09:23:16.718Z,96881.63
2023-05-07T09:24:18.615Z,96886.41
2023-05-07T09:25:29.078Z,96882.19
2023-05-07T09:26:30.924Z,96885.06
2023-05-07T09:27:32.775Z,96880.06
2023-05-07T09:28:34.659Z,96888.03
2023-05-07T09:29:36.799Z,96878.75
2023-05-07T09:30:38.784Z,96875.81
2023-05-07T09:31:41.039Z,96879.81
2023-05-07T09:32:42.976Z,96884.31
2023-05-07T09:33:44.866Z,96878.75
2023-05-07T09:34:48.720Z,96878.50
2023-05-07T09:35:53.316Z,96876.09
2023-05-07T09:36:55.176Z,96870.81
2023-05-07T09:37:58.080Z,96875.06
2023-05-07T09:39:02.770Z,96875.03
2023-05-07T09:40:04.858Z,96871.63
2023-05-07T09:41:08.465Z,96878.25
2023-05-07T09:42:10.600Z,96874.28
2023-05-07T09:43:13.102Z,96865.50
2023-05-07T09:44:15.581Z,96871.84
2023-05-07T09:45:18.094Z,96873.69
2023-05-07T09:46:21.614Z,96864.13
2023-05-07T09:47:25.790Z,96867.31
2023-05-07T09:48:28.747Z,96871.53
2023-05-07T09:49:31.580Z,96865.44
2023-05-07T09:50:45.290Z,96862.75
2023-05-07T09:51:49.459Z,96866.19
2023-05-07T09:52:51.310Z,96872.25
2023-05-07T09:53:54.078Z,96875.44
2023-05-07T09:54:57.182Z,96866.91
2023-05-07T09:55:59.981Z,96869.81
2023-05-07T09:57:04.322Z,96874.00
2023-05-07T09:58:07.204Z,96879.25
2023-05-07T09:59:09.682Z,96879.97
2023-05-07T10:00:12.125Z,96877.00
2023-05-07T10:01:14.664Z,96874.84
2023-05-07T10:02:17.146Z,96875.63
2023-05-07T10:03:21.069Z,96881.13
2023-05-07T10:04:23.180Z,96884.78
2023-05-07T10:05:25.716Z,96881.59
2023-05-07T10:06:27.928Z,96881.88
2023-05-07T10:07:30.557Z,96884.53
2023-05-07T10:08:32.836Z,96880.84
2023-05-07T10:09:36.704Z,96880.88
2023-05-07T10:10:39.179Z,96878.03
2023-05-07T10:11:41.851Z,96874.50
2023-05-07T10:12:43.809Z,96881.88
2023-05-07T10:13:47.685Z,96876.25
2023-05-07T10:14:50.124Z,96874.91
2023-05-07T10:15:52.362Z,96885.81
2023-05-07T10:16:55.074Z,96870.09
2023-05-07T10:17:57.264Z,96873.00
2023-05-07T10:19:00.090Z,96872.44
2023-05-07T10:20:04.323Z,96873.44
2023-05-07T10:21:12.620Z,96872.81
2023-05-07T10:22:15.230Z,96877.31
2023-05-07T10:23:20.603Z,96874.44
2023-05-07T10:24:32.849Z,96878.22
2023-05-07T10:25:34.754Z,96879.44
2023-05-07T10:26:37.048Z,96884.94
2023-05-07T10:27:39.315Z,96883.31
2023-05-07T10:28:42.428Z,96885.19
2023-05-07T10:30:03.012Z,96893.13
2023-05-07T10:31:20.183Z,96881.72
2023-05-07T10:32:42.493Z,96882.88
2023-05-07T10:33:46.956Z,96880.09
2023-05-07T10:34:50.085Z,96884.72
2023-05-07T10:35:52.124Z,96880.91
2023-05-07T10:36:54.642Z,96868.09
2023-05-07T10:37:56.654Z,96870.44
2023-05-07T10:38:58.512Z,96868.38
2023-05-07T10:40:00.453Z,96866.75
2023-05-07T10:41:02.935Z,96871.81
2023-05-07T10:42:11.803Z,96869.25
2023-05-07T10:43:13.677Z,96878.09
2023-05-07T10:44:41.655Z,96882.44
2023-05-07T10:45:43.630Z,96878.63
2023-05-07T10:47:05.645Z,96876.56
2023-05-07T10:48:20.882Z,96880.81
2023-05-07T10:49:29.267Z,96881.19
2023-05-07T10:50:31.264Z,96882.53
2023-05-07T10:51:34.380Z,96879.78
2023-05-07T10:52:36.469Z,96871.03
2023-05-07T10:53:38.309Z,96880.78
2023-05-07T10:54:40.312Z,96883.75
2023-05-07T10:55:42.230Z,96875.97
2023-05-07T10:56:44.485Z,96872.81
2023-05-07T10:57:46.290Z,96877.97
2023-05-07T10:58:48.090Z,96877.78
2023-05-07T10:59:50.525Z,96873.53
2023-05-07T11:00:53.789Z,96872.22
2023-05-07T11:01:57.342Z,96876.28
2023-05-07T11:03:02.387Z,96877.66
2023-05-07T11:04:17.032Z,96883.91
2023-05-07T11:05:22.801Z,96879.25
2023-05-07T11:06:24.922Z,96881.16
2023-05-07T11:07:28.073Z,96871.34
2023-05-07T11:08:49.863Z,96879.66
2023-05-07T11:09:54.808Z,96881.34
2023-05-07T11:10:58.625Z,96881.47
2023-05-07T11:12:00.521Z,96879.03
2023-05-07T11:13:02.526Z,96880.28
2023-05-07T11:14:04.447Z,96870.78
2023-05-07T11:15:13.219Z,96868.84
2023-05-07T11:16:34.909Z,96867.56
2023-05-07T11:17:54.057Z,96883.56
2023-05-07T11:18:56.852Z,96875.34
2023-05-07T11:19:59.282Z,96876.28
2023-05-07T11:21:01.218Z,96875.50
2023-05-07T11:22:03.198Z,96874.50
2023-05-07T11:23:05.037Z,96867.94
2023-05-07T11:24:08.082Z,96870.81
2023-05-07T11:25:10.124Z,96868.25
2023-05-07T11:26:15.799Z,96867.63
2023-05-07T11:27:24.387Z,96861.69
2023-05-07T11:28:27.027Z,96866.09
2023-05-07T11:29:30.353Z,96866.19
2023-05-07T11:30:32.708Z,96869.00
2023-05-07T11:31:34.740Z,96868.63
2023-05-07T11:32:36.835Z,96871.84
2023-05-07T11:33:39.002Z,96863.81
2023-05-07T11:34:41.053Z,96870.81
2023-05-07T11:35:43.681Z,96867.88
2023-05-07T11:36:46.608Z,96866.53
2023-05-07T11:37:49.362Z,96854.84
2023-05-07T11:38:51.258Z,96862.72
2023-05-07T11:40:03.431Z,96871.91
2023-05-07T11:41:06.655Z,96865.97
2023-05-07T11:42:09.367Z,96869.00
2023-05-07T11:43:14.219Z,96859.59
2023-05-07T11:44:16.069Z,96866.03
2023-05-07T11:45:25.354Z,96866.53
2023-05-07T11:46:28.492Z,96876.44
2023-05-07T11:47:34.051Z,96867.38
2023-05-07T11:48:36.120Z,96864.34
2023-05-07T11:49:38.123Z,96862.38
2023-05-07T11:51:00.211Z,96859.78
2023-05-07T11:52:02.149Z,96869.38
2023-05-07T11:53:09.780Z,96863.31
2023-05-07T11:54:12.693Z,96869.75
2023-05-07T11:55:14.662Z,96867.31
2023-05-07T11:56:17.835Z,96862.56
2023-05-07T11:57:19.897Z,96865.63
2023-05-07T11:58:23.157Z,96862.16
2023-05-07T11:59:24.979Z,96856.22
2023-05-07T12:00:26.827Z,96866.69
2023-05-07T12:01:28.712Z,96863.34
2023-05-07T12:02:31.157Z,96861.31
2023-05-07T12:03:36.247Z,96867.41
2023-05-07T12:04:39.833Z,96864.63
2023-05-07T12:05:43.118Z,96863.13
2023-05-07T12:06:44.919Z,96860.50
2023-05-07T12:07:46.795Z,96866.22
2023-05-07T12:08:48.755Z,96857.88
2023-05-07T12:09:51.575Z,96847.31
2023-05-07T12:10:53.768Z,96852.44
2023-05-07T12:11:57.498Z,96852.03
2023-05-07T12:12:59.463Z,96855.63
2023-05-07T12:14:01.290Z,96852.66
2023-05-07T12:15:03.119Z,96851.44
2023-05-07T12:16:05.779Z,96858.00